sensor_id;sensor_type;location;lat;lon;timestamp;pressure;altitude;pressure_sealevel;temperature;humidity
7268;BME280;3675;43.276;27.962;2024-03-22T00:01:21;98224.56;;;2.47;88.48
7268;BME280;3675;43.276;27.962;2024-03-22T00:04:00;98232.22;;;2.47;88.55
7268;BME280;3675;43.276;27.962;2024-03-22T00:06:47;98225.50;;;2.39;88.65
7268;BME280;3675;43.276;27.962;2024-03-22T00:12:18;98229.72;;;2.40;89.19
7268;BME280;3675;43.276;27.962;2024-03-22T00:15:13;98229.72;;;2.41;89.00
7268;BME280;3675;43.276;27.962;2024-03-22T00:17:53;98231.47;;;2.38;88.90
7268;BME280;3675;43.276;27.962;2024-03-22T00:20:29;98228.78;;;2.50;88.77
7268;BME280;3675;43.276;27.962;2024-03-22T00:23:02;98224.44;;;2.58;88.16
7268;BME280;3675;43.276;27.962;2024-03-22T00:25:39;98226.19;;;2.54;88.13
7268;BME280;3675;43.276;27.962;2024-03-22T00:28:31;98234.81;;;2.41;88.73
7268;BME280;3675;43.276;27.962;2024-03-22T00:31:11;98232.19;;;2.49;88.42
7268;BME280;3675;43.276;27.962;2024-03-22T00:33:58;98233.94;;;2.45;88.30
7268;BME280;3675;43.276;27.962;2024-03-22T00:36:48;98234.72;;;2.49;88.30
7268;BME280;3675;43.276;27.962;2024-03-22T00:39:24;98245.75;;;2.54;88.22
7268;BME280;3675;43.276;27.962;2024-03-22T00:41:59;98241.59;;;2.47;88.43
7268;BME280;3675;43.276;27.962;2024-03-22T00:48:40;98243.25;;;2.51;87.93
7268;BME280;3675;43.276;27.962;2024-03-22T00:51:19;98242.34;;;2.53;87.89
7268;BME280;3675;43.276;27.962;2024-03-22T00:54:40;98243.25;;;2.49;88.44
7268;BME280;3675;43.276;27.962;2024-03-22T00:57:35;98242.38;;;2.52;88.22
7268;BME280;3675;43.276;27.962;2024-03-22T01:00:17;98242.38;;;2.49;88.22
7268;BME280;3675;43.276;27.962;2024-03-22T01:03:02;98244.94;;;2.52;87.94
7268;BME280;3675;43.276;27.962;2024-03-22T01:05:40;98246.66;;;2.50;88.51
7268;BME280;3675;43.276;27.962;2024-03-22T01:08:23;98240.72;;;2.46;88.35
7268;BME280;3675;43.276;27.962;2024-03-22T01:14:29;98241.63;;;2.42;88.27
7268;BME280;3675;43.276;27.962;2024-03-22T01:17:08;98239.97;;;2.38;88.50
7268;BME280;3675;43.276;27.962;2024-03-22T01:20:14;98244.13;;;2.47;88.16
7268;BME280;3675;43.276;27.962;2024-03-22T01:23:12;98236.50;;;2.44;88.55
7268;BME280;3675;43.276;27.962;2024-03-22T01:25:46;98240.84;;;2.36;88.93
7268;BME280;3675;43.276;27.962;2024-03-22T01:28:43;98240.78;;;2.40;88.68
7268;BME280;3675;43.276;27.962;2024-03-22T01:31:31;98229.63;;;2.49;88.73
7268;BME280;3675;43.276;27.962;2024-03-22T01:34:24;98233.03;;;2.49;88.19
7268;BME280;3675;43.276;27.962;2024-03-22T01:36:59;98231.38;;;2.44;88.82
7268;BME280;3675;43.276;27.962;2024-03-22T01:40:24;98238.19;;;2.46;88.79
7268;BME280;3675;43.276;27.962;2024-03-22T01:43:39;98242.47;;;2.43;89.31
7268;BME280;3675;43.276;27.962;2024-03-22T01:46:18;98227.22;;;2.38;89.36
7268;BME280;3675;43.276;27.962;2024-03-22T01:49:04;98234.06;;;2.32;89.77
7268;BME280;3675;43.276;27.962;2024-03-22T01:51:45;98237.38;;;2.40;89.15
7268;BME280;3675;43.276;27.962;2024-03-22T01:54:34;98235.69;;;2.40;89.60
7268;BME280;3675;43.276;27.962;2024-03-22T01:57:21;98250.19;;;2.37;89.44
7268;BME280;3675;43.276;27.962;2024-03-22T02:03:32;98248.56;;;2.30;89.96
7268;BME280;3675;43.276;27.962;2024-03-22T02:06:36;98242.53;;;2.37;90.00
7268;BME280;3675;43.276;27.962;2024-03-22T02:09:13;98246.78;;;2.35;89.77
7268;BME280;3675;43.276;27.962;2024-03-22T02:18:13;98234.03;;;2.35;90.23
7268;BME280;3675;43.276;27.962;2024-03-22T02:21:01;98230.66;;;2.33;89.78
7268;BME280;3675;43.276;27.962;2024-03-22T02:24:07;98233.25;;;2.26;89.87
7268;BME280;3675;43.276;27.962;2024-03-22T02:27:09;98242.66;;;2.24;89.37
7268;BME280;3675;43.276;27.962;2024-03-22T02:29:50;98237.56;;;2.21;88.98
7268;BME280;3675;43.276;27.962;2024-03-22T02:32:36;98237.59;;;2.17;88.89
7268;BME280;3675;43.276;27.962;2024-03-22T02:35:32;98238.53;;;2.08;88.93
7268;BME280;3675;43.276;27.962;2024-03-22T02:38:18;98248.78;;;2.05;88.83
7268;BME280;3675;43.276;27.962;2024-03-22T02:41:34;98245.38;;;2.08;88.96
7268;BME280;3675;43.276;27.962;2024-03-22T02:44:18;98256.38;;;2.11;89.01
7268;BME280;3675;43.276;27.962;2024-03-22T02:47:42;98254.72;;;2.06;89.52
7268;BME280;3675;43.276;27.962;2024-03-22T02:50:21;98247.97;;;2.03;89.27
7268;BME280;3675;43.276;27.962;2024-03-22T02:52:54;98250.47;;;2.05;89.22
7268;BME280;3675;43.276;27.962;2024-03-22T02:55:59;98252.25;;;1.95;89.17
7268;BME280;3675;43.276;27.962;2024-03-22T02:58:40;98259.97;;;1.88;89.29
7268;BME280;3675;43.276;27.962;2024-03-22T03:01:14;98251.50;;;1.83;89.18
7268;BME280;3675;43.276;27.962;2024-03-22T03:03:50;98259.19;;;1.81;89.08
7268;BME280;3675;43.276;27.962;2024-03-22T03:06:32;98260.00;;;1.83;89.37
7268;BME280;3675;43.276;27.962;2024-03-22T03:09:16;98264.31;;;1.73;90.07
7268;BME280;3675;43.276;27.962;2024-03-22T03:12:15;98266.88;;;1.73;90.26
7268;BME280;3675;43.276;27.962;2024-03-22T03:15:16;98274.53;;;1.76;90.36
7268;BME280;3675;43.276;27.962;2024-03-22T03:18:09;98282.97;;;1.80;90.32
7268;BME280;3675;43.276;27.962;2024-03-22T03:20:54;98279.56;;;1.84;90.34
7268;BME280;3675;43.276;27.962;2024-03-22T03:23:44;98274.41;;;1.87;90.16
7268;BME280;3675;43.276;27.962;2024-03-22T03:26:33;98268.44;;;1.93;89.93
7268;BME280;3675;43.276;27.962;2024-03-22T03:29:27;98270.13;;;1.94;89.45
7268;BME280;3675;43.276;27.962;2024-03-22T03:32:13;98273.53;;;1.91;89.96
7268;BME280;3675;43.276;27.962;2024-03-22T03:34:49;98278.63;;;1.94;90.11
7268;BME280;3675;43.276;27.962;2024-03-22T03:37:29;98277.75;;;1.98;89.59
7268;BME280;3675;43.276;27.962;2024-03-22T03:40:21;98275.19;;;1.95;89.58
7268;BME280;3675;43.276;27.962;2024-03-22T03:43:04;98271.75;;;2.01;89.42
7268;BME280;3675;43.276;27.962;2024-03-22T03:45:48;98272.63;;;2.01;89.48
7268;BME280;3675;43.276;27.962;2024-03-22T03:48:34;98269.25;;;1.96;89.38
7268;BME280;3675;43.276;27.962;2024-03-22T03:51:19;98277.72;;;2.00;89.27
7268;BME280;3675;43.276;27.962;2024-03-22T03:53:53;98277.72;;;2.01;88.87
7268;BME280;3675;43.276;27.962;2024-03-22T03:56:31;98284.53;;;2.01;88.95
7268;BME280;3675;43.276;27.962;2024-03-22T03:59:08;98275.13;;;2.06;88.08
7268;BME280;3675;43.276;27.962;2024-03-22T04:03:01;98279.44;;;1.96;88.20
7268;BME280;3675;43.276;27.962;2024-03-22T04:05:29;98271.88;;;1.89;88.51
7268;BME280;3675;43.276;27.962;2024-03-22T04:08:25;98281.22;;;1.88;88.29
7268;BME280;3675;43.276;27.962;2024-03-22T04:11:16;98286.31;;;1.88;88.18
7268;BME280;3675;43.276;27.962;2024-03-22T04:13:57;98288.94;;;1.80;88.93
7268;BME280;3675;43.276;27.962;2024-03-22T04:17:17;98293.13;;;1.86;88.80
7268;BME280;3675;43.276;27.962;2024-03-22T04:19:54;98296.53;;;1.88;88.74
7268;BME280;3675;43.276;27.962;2024-03-22T04:22:40;98295.66;;;1.89;88.99
7268;BME280;3675;43.276;27.962;2024-03-22T04:25:31;98293.13;;;1.89;88.89
7268;BME280;3675;43.276;27.962;2024-03-22T04:28:21;98301.63;;;1.87;89.12
7268;BME280;3675;43.276;27.962;2024-03-22T04:31:13;98294.81;;;1.87;89.16
7268;BME280;3675;43.276;27.962;2024-03-22T04:33:58;98294.78;;;1.95;88.93
7268;BME280;3675;43.276;27.962;2024-03-22T04:36:59;98293.13;;;1.88;89.71
7268;BME280;3675;43.276;27.962;2024-03-22T04:40:03;98293.09;;;1.94;89.54
7268;BME280;3675;43.276;27.962;2024-03-22T04:42:45;98292.22;;;1.93;89.43
7268;BME280;3675;43.276;27.962;2024-03-22T04:45:53;98285.38;;;2.00;89.62
7268;BME280;3675;43.276;27.962;2024-03-22T04:48:49;98294.75;;;1.98;89.73
7268;BME280;3675;43.276;27.962;2024-03-22T04:51:56;98289.63;;;2.02;89.17
7268;BME280;3675;43.276;27.962;2024-03-22T04:54:59;98287.00;;;2.08;89.67
7268;BME280;3675;43.276;27.962;2024-03-22T04:57:48;98288.75;;;2.03;89.43
7268;BME280;3675;43.276;27.962;2024-03-22T05:00:22;98303.19;;;2.06;89.57
7268;BME280;3675;43.276;27.962;2024-03-22T05:03:14;98305.66;;;2.15;89.27
7268;BME280;3675;43.276;27.962;2024-03-22T05:05:55;98305.59;;;2.22;89.22
7268;BME280;3675;43.276;27.962;2024-03-22T05:09:07;98307.28;;;2.23;89.59
7268;BME280;3675;43.276;27.962;2024-03-22T05:12:00;98297.09;;;2.22;89.27
7268;BME280;3675;43.276;27.962;2024-03-22T05:15:14;98309.91;;;2.16;89.29
7268;BME280;3675;43.276;27.962;2024-03-22T05:18:02;98304.81;;;2.13;89.66
7268;BME280;3675;43.276;27.962;2024-03-22T05:20:59;98309.91;;;2.13;89.02
7268;BME280;3675;43.276;27.962;2024-03-22T05:23:45;98313.38;;;2.07;89.46
7268;BME280;3675;43.276;27.962;2024-03-22T05:26:30;98305.66;;;2.13;89.49
7268;BME280;3675;43.276;27.962;2024-03-22T05:32:22;98312.34;;;2.26;88.76
7268;BME280;3675;43.276;27.962;2024-03-22T05:35:13;98314.94;;;2.23;88.52
7268;BME280;3675;43.276;27.962;2024-03-22T05:37:53;98308.94;;;2.26;88.03
7268;BME280;3675;43.276;27.962;2024-03-22T05:40:43;98315.72;;;2.32;88.03
7268;BME280;3675;43.276;27.962;2024-03-22T05:43:25;98314.75;;;2.45;87.96
7268;BME280;3675;43.276;27.962;2024-03-22T05:49:29;98317.03;;;2.70;86.97
7268;BME280;3675;43.276;27.962;2024-03-22T05:52:07;98319.50;;;2.81;87.51
7268;BME280;3675;43.276;27.962;2024-03-22T05:54:49;98320.09;;;3.01;87.10
7268;BME280;3675;43.276;27.962;2024-03-22T05:57:41;98317.34;;;3.20;86.12
7268;BME280;3675;43.276;27.962;2024-03-22T06:00:14;98325.75;;;3.28;85.40
7268;BME280;3675;43.276;27.962;2024-03-22T06:03:00;98322.34;;;3.29;85.51
7268;BME280;3675;43.276;27.962;2024-03-22T06:06:12;98324.78;;;3.39;85.00
7268;BME280;3675;43.276;27.962;2024-03-22T06:09:01;98328.00;;;3.53;84.92
7268;BME280;3675;43.276;27.962;2024-03-22T06:11:54;98319.25;;;3.68;84.45
7268;BME280;3675;43.276;27.962;2024-03-22T06:14:38;98324.22;;;3.79;83.29
7268;BME280;3675;43.276;27.962;2024-03-22T06:20:24;98321.94;;;4.17;82.06
7268;BME280;3675;43.276;27.962;2024-03-22T06:23:27;98315.72;;;4.33;81.73
7268;BME280;3675;43.276;27.962;2024-03-22T06:26:18;98324.19;;;4.37;80.88
7268;BME280;3675;43.276;27.962;2024-03-22T06:29:07;98325.03;;;4.37;80.52
7268;BME280;3675;43.276;27.962;2024-03-22T06:32:03;98331.59;;;4.52;81.20
7268;BME280;3675;43.276;27.962;2024-03-22T06:34:43;98324.63;;;4.60;79.83
7268;BME280;3675;43.276;27.962;2024-03-22T06:37:23;98335.53;;;4.70;79.89
7268;BME280;3675;43.276;27.962;2024-03-22T06:40:20;98333.72;;;4.76;79.70
7268;BME280;3675;43.276;27.962;2024-03-22T06:42:54;98339.44;;;4.90;78.26
7268;BME280;3675;43.276;27.962;2024-03-22T06:45:53;98346.03;;;5.04;78.22
7268;BME280;3675;43.276;27.962;2024-03-22T06:48:32;98344.94;;;5.15;76.88
7268;BME280;3675;43.276;27.962;2024-03-22T06:55:06;98334.25;;;5.38;75.72
7268;BME280;3675;43.276;27.962;2024-03-22T06:58:01;98337.19;;;5.60;75.93
7268;BME280;3675;43.276;27.962;2024-03-22T07:00:43;98332.75;;;5.68;75.20
7268;BME280;3675;43.276;27.962;2024-03-22T07:03:24;98335.19;;;5.74;74.14
7268;BME280;3675;43.276;27.962;2024-03-22T07:06:24;98345.19;;;5.88;72.64
7268;BME280;3675;43.276;27.962;2024-03-22T07:09:17;98343.41;;;5.90;72.61
7268;BME280;3675;43.276;27.962;2024-03-22T07:12:00;98353.38;;;6.03;73.09
7268;BME280;3675;43.276;27.962;2024-03-22T07:14:47;98348.22;;;6.03;72.38
7268;BME280;3675;43.276;27.962;2024-03-22T07:21:22;98359.41;;;6.38;72.65
7268;BME280;3675;43.276;27.962;2024-03-22T07:23:59;98352.38;;;6.46;71.40
7268;BME280;3675;43.276;27.962;2024-03-22T07:26:49;98358.38;;;6.45;69.68
7268;BME280;3675;43.276;27.962;2024-03-22T07:30:04;98359.75;;;6.59;70.35
7268;BME280;3675;43.276;27.962;2024-03-22T07:32:57;98369.50;;;6.79;70.68
7268;BME280;3675;43.276;27.962;2024-03-22T07:35:34;98369.16;;;6.93;69.62
7268;BME280;3675;43.276;27.962;2024-03-22T07:38:24;98374.03;;;7.03;69.85
7268;BME280;3675;43.276;27.962;2024-03-22T07:41:06;98373.94;;;7.06;69.36
7268;BME280;3675;43.276;27.962;2024-03-22T07:43:42;98378.22;;;7.07;69.12
7268;BME280;3675;43.276;27.962;2024-03-22T07:46:56;98376.78;;;7.28;68.37
7268;BME280;3675;43.276;27.962;2024-03-22T07:49:50;98377.13;;;7.47;69.64
7268;BME280;3675;43.276;27.962;2024-03-22T07:52:34;98390.97;;;7.72;69.20
7268;BME280;3675;43.276;27.962;2024-03-22T07:55:25;98389.75;;;7.84;67.70
7268;BME280;3675;43.276;27.962;2024-03-22T07:58:00;98385.25;;;7.92;66.63
7268;BME280;3675;43.276;27.962;2024-03-22T08:00:45;98394.84;;;7.87;65.49
7268;BME280;3675;43.276;27.962;2024-03-22T08:03:42;98390.50;;;8.17;67.26
7268;BME280;3675;43.276;27.962;2024-03-22T08:06:25;98390.75;;;8.37;65.72
7268;BME280;3675;43.276;27.962;2024-03-22T08:09:14;98398.19;;;8.18;64.03
7268;BME280;3675;43.276;27.962;2024-03-22T08:12:05;98385.66;;;8.06;65.74
7268;BME280;3675;43.276;27.962;2024-03-22T08:14:44;98397.88;;;7.99;65.77
7268;BME280;3675;43.276;27.962;2024-03-22T08:17:28;98394.75;;;7.90;63.32
7268;BME280;3675;43.276;27.962;2024-03-22T08:23:38;98386.34;;;8.12;65.59
7268;BME280;3675;43.276;27.962;2024-03-22T08:26:23;98393.13;;;8.43;64.58
7268;BME280;3675;43.276;27.962;2024-03-22T08:29:09;98388.66;;;8.76;64.41
7268;BME280;3675;43.276;27.962;2024-03-22T08:34:43;98396.53;;;8.71;65.64
7268;BME280;3675;43.276;27.962;2024-03-22T08:37:20;98401.53;;;8.76;63.71
7268;BME280;3675;43.276;27.962;2024-03-22T08:40:07;98401.56;;;8.48;64.60
7268;BME280;3675;43.276;27.962;2024-03-22T08:42:51;98408.06;;;8.60;63.96
7268;BME280;3675;43.276;27.962;2024-03-22T08:45:35;98403.25;;;8.49;63.99
7268;BME280;3675;43.276;27.962;2024-03-22T08:48:27;98397.19;;;8.50;64.31
7268;BME280;3675;43.276;27.962;2024-03-22T08:54:54;98402.41;;;8.75;63.12
7268;BME280;3675;43.276;27.962;2024-03-22T08:57:39;98402.34;;;8.76;64.02
7268;BME280;3675;43.276;27.962;2024-03-22T09:00:31;98410.75;;;8.56;62.02
7268;BME280;3675;43.276;27.962;2024-03-22T09:03:08;98415.88;;;8.30;63.52
7268;BME280;3675;43.276;27.962;2024-03-22T09:06:12;98404.03;;;8.51;63.90
7268;BME280;3675;43.276;27.962;2024-03-22T09:09:04;98411.34;;;8.65;63.02
7268;BME280;3675;43.276;27.962;2024-03-22T09:11:58;98405.78;;;8.50;62.75
7268;BME280;3675;43.276;27.962;2024-03-22T09:14:55;98408.41;;;8.49;63.34
7268;BME280;3675;43.276;27.962;2024-03-22T09:20:45;98402.28;;;8.79;63.65
7268;BME280;3675;43.276;27.962;2024-03-22T09:23:46;98408.88;;;9.13;60.10
7268;BME280;3675;43.276;27.962;2024-03-22T09:27:04;98400.19;;;9.63;60.02
7268;BME280;3675;43.276;27.962;2024-03-22T09:33:50;98389.91;;;10.08;58.38
7268;BME280;3675;43.276;27.962;2024-03-22T09:36:28;98390.78;;;10.30;58.81
7268;BME280;3675;43.276;27.962;2024-03-22T09:39:26;98391.16;;;10.43;54.93
7268;BME280;3675;43.276;27.962;2024-03-22T09:42:47;98389.81;;;10.33;56.23
7268;BME280;3675;43.276;27.962;2024-03-22T09:46:11;98391.50;;;10.34;55.82
7268;BME280;3675;43.276;27.962;2024-03-22T09:49:16;98395.97;;;10.30;55.51
7268;BME280;3675;43.276;27.962;2024-03-22T09:52:10;98393.38;;;10.30;55.58
7268;BME280;3675;43.276;27.962;2024-03-22T09:55:11;98391.38;;;10.37;55.65
7268;BME280;3675;43.276;27.962;2024-03-22T10:01:20;98386.06;;;10.84;55.00
7268;BME280;3675;43.276;27.962;2024-03-22T10:04:27;98393.91;;;10.80;54.15
7268;BME280;3675;43.276;27.962;2024-03-22T10:07:01;98379.13;;;11.04;53.36
7268;BME280;3675;43.276;27.962;2024-03-22T10:09:51;98385.22;;;10.83;54.30
7268;BME280;3675;43.276;27.962;2024-03-22T10:12:31;98383.31;;;10.66;53.72
7268;BME280;3675;43.276;27.962;2024-03-22T10:18:18;98383.84;;;10.74;52.85
7268;BME280;3675;43.276;27.962;2024-03-22T10:21:02;98378.28;;;10.84;51.53
7268;BME280;3675;43.276;27.962;2024-03-22T10:27:39;98372.75;;;11.70;52.18
7268;BME280;3675;43.276;27.962;2024-03-22T10:30:19;98373.72;;;11.88;51.33
7268;BME280;3675;43.276;27.962;2024-03-22T10:33:09;98372.81;;;11.69;51.64
7268;BME280;3675;43.276;27.962;2024-03-22T10:35:57;98387.66;;;11.26;52.34
7268;BME280;3675;43.276;27.962;2024-03-22T10:38:45;98382.88;;;11.17;51.00
7268;BME280;3675;43.276;27.962;2024-03-22T10:41:34;98374.72;;;11.65;51.35
7268;BME280;3675;43.276;27.962;2024-03-22T10:45:02;98363.97;;;11.93;49.90
7268;BME280;3675;43.276;27.962;2024-03-22T10:48:38;98362.47;;;11.69;49.39
7268;BME280;3675;43.276;27.962;2024-03-22T10:51:56;98364.75;;;11.77;51.17
7268;BME280;3675;43.276;27.962;2024-03-22T10:55:14;98348.91;;;12.01;50.70
7268;BME280;3675;43.276;27.962;2024-03-22T10:57:55;98352.91;;;11.51;48.79
7268;BME280;3675;43.276;27.962;2024-03-22T11:01:27;98344.19;;;11.53;50.34
7268;BME280;3675;43.276;27.962;2024-03-22T11:04:31;98340.03;;;11.88;50.02
7268;BME280;3675;43.276;27.962;2024-03-22T11:07:19;98340.69;;;12.29;47.81
7268;BME280;3675;43.276;27.962;2024-03-22T11:10:25;98333.84;;;12.45;47.52
7268;BME280;3675;43.276;27.962;2024-03-22T11:13:19;98335.81;;;12.40;48.31
7268;BME280;3675;43.276;27.962;2024-03-22T11:15:58;98338.50;;;12.39;46.35
7268;BME280;3675;43.276;27.962;2024-03-22T11:19:07;98337.34;;;12.44;47.47
7268;BME280;3675;43.276;27.962;2024-03-22T11:21:59;98327.91;;;12.78;46.43
7268;BME280;3675;43.276;27.962;2024-03-22T11:29:08;98317.88;;;13.04;42.85
7268;BME280;3675;43.276;27.962;2024-03-22T11:32:25;98307.13;;;12.95;43.42
7268;BME280;3675;43.276;27.962;2024-03-22T11:35:27;98310.03;;;12.72;43.51
7268;BME280;3675;43.276;27.962;2024-03-22T11:38:09;98305.06;;;12.84;44.50
7268;BME280;3675;43.276;27.962;2024-03-22T11:40:51;98306.06;;;12.82;44.88
7268;BME280;3675;43.276;27.962;2024-03-22T11:43:38;98310.88;;;12.89;43.84
7268;BME280;3675;43.276;27.962;2024-03-22T11:46:37;98295.13;;;12.92;44.24
7268;BME280;3675;43.276;27.962;2024-03-22T11:49:55;98294.53;;;13.22;43.14
7268;BME280;3675;43.276;27.962;2024-03-22T11:52:41;98300.75;;;13.35;43.52
7268;BME280;3675;43.276;27.962;2024-03-22T11:56:25;98307.19;;;13.11;41.19
7268;BME280;3675;43.276;27.962;2024-03-22T11:59:23;98310.03;;;12.89;41.67
7268;BME280;3675;43.276;27.962;2024-03-22T12:02:01;98301.03;;;12.96;42.26
7268;BME280;3675;43.276;27.962;2024-03-22T12:04:46;98295.72;;;13.32;43.00
7268;BME280;3675;43.276;27.962;2024-03-22T12:07:25;98294.38;;;12.90;43.65
7268;BME280;3675;43.276;27.962;2024-03-22T12:09:55;98297.13;;;13.04;41.70
7268;BME280;3675;43.276;27.962;2024-03-22T12:12:47;98301.88;;;12.62;42.78
7268;BME280;3675;43.276;27.962;2024-03-22T12:15:23;98300.56;;;12.36;43.65
7268;BME280;3675;43.276;27.962;2024-03-22T12:17:59;98299.25;;;12.28;43.87
7268;BME280;3675;43.276;27.962;2024-03-22T12:20:37;98302.09;;;12.40;45.18
7268;BME280;3675;43.276;27.962;2024-03-22T12:23:26;98295.59;;;12.32;43.63
7268;BME280;3675;43.276;27.962;2024-03-22T12:26:07;98291.19;;;12.17;43.67
7268;BME280;3675;43.276;27.962;2024-03-22T12:28:43;98301.63;;;11.96;43.60
7268;BME280;3675;43.276;27.962;2024-03-22T12:31:23;98289.78;;;12.09;44.36
7268;BME280;3675;43.276;27.962;2024-03-22T12:33:57;98297.72;;;12.06;44.82
7268;BME280;3675;43.276;27.962;2024-03-22T12:36:31;98296.56;;;11.76;45.52
7268;BME280;3675;43.276;27.962;2024-03-22T12:39:16;98304.44;;;11.36;44.85
7268;BME280;3675;43.276;27.962;2024-03-22T12:42:00;98301.94;;;11.14;44.47
7268;BME280;3675;43.276;27.962;2024-03-22T12:44:48;98297.50;;;10.97;45.13
7268;BME280;3675;43.276;27.962;2024-03-22T12:47:28;98301.66;;;11.01;46.77
7268;BME280;3675;43.276;27.962;2024-03-22T12:50:15;98293.41;;;11.12;47.17
7268;BME280;3675;43.276;27.962;2024-03-22T12:52:50;98280.66;;;11.07;46.22
7268;BME280;3675;43.276;27.962;2024-03-22T12:55:30;98282.59;;;11.02;45.71
7268;BME280;3675;43.276;27.962;2024-03-22T12:58:24;98286.38;;;10.95;44.06
7268;BME280;3675;43.276;27.962;2024-03-22T13:01:06;98280.25;;;10.77;45.79
7268;BME280;3675;43.276;27.962;2024-03-22T13:03:52;98275.91;;;10.78;45.93
7268;BME280;3675;43.276;27.962;2024-03-22T13:06:31;98273.59;;;10.72;46.95
7268;BME280;3675;43.276;27.962;2024-03-22T13:09:16;98286.53;;;10.52;46.88
7268;BME280;3675;43.276;27.962;2024-03-22T13:12:03;98295.56;;;10.42;47.30
7268;BME280;3675;43.276;27.962;2024-03-22T13:15:01;98288.50;;;10.25;47.87
7268;BME280;3675;43.276;27.962;2024-03-22T13:17:43;98292.03;;;10.22;49.47
7268;BME280;3675;43.276;27.962;2024-03-22T13:20:43;98286.63;;;10.28;49.95
7268;BME280;3675;43.276;27.962;2024-03-22T13:23:22;98279.09;;;10.22;47.51
7268;BME280;3675;43.276;27.962;2024-03-22T13:26:06;98269.88;;;10.17;48.47
7268;BME280;3675;43.276;27.962;2024-03-22T13:29:05;98275.25;;;10.11;47.87
7268;BME280;3675;43.276;27.962;2024-03-22T13:31:39;98263.50;;;10.04;48.43
7268;BME280;3675;43.276;27.962;2024-03-22T13:34:28;98268.94;;;9.96;47.88
7268;BME280;3675;43.276;27.962;2024-03-22T13:37:08;98262.66;;;9.81;46.10
7268;BME280;3675;43.276;27.962;2024-03-22T13:39:41;98261.47;;;9.90;47.12
7268;BME280;3675;43.276;27.962;2024-03-22T13:42:30;98257.00;;;9.93;48.27
7268;BME280;3675;43.276;27.962;2024-03-22T13:45:14;98259.91;;;9.86;47.48
7268;BME280;3675;43.276;27.962;2024-03-22T13:47:54;98260.91;;;9.82;49.56
7268;BME280;3675;43.276;27.962;2024-03-22T13:50:27;98261.72;;;9.82;49.80
7268;BME280;3675;43.276;27.962;2024-03-22T13:53:11;98261.09;;;9.77;50.13
7268;BME280;3675;43.276;27.962;2024-03-22T13:55:52;98255.69;;;9.83;49.52
7268;BME280;3675;43.276;27.962;2024-03-22T13:59:18;98254.28;;;9.75;49.72
7268;BME280;3675;43.276;27.962;2024-03-22T14:02:05;98259.63;;;9.70;50.93
7268;BME280;3675;43.276;27.962;2024-03-22T14:04:47;98258.25;;;9.62;49.17
7268;BME280;3675;43.276;27.962;2024-03-22T14:07:33;98254.41;;;9.50;49.12
7268;BME280;3675;43.276;27.962;2024-03-22T14:10:17;98256.72;;;9.34;51.95
7268;BME280;3675;43.276;27.962;2024-03-22T14:13:09;98255.81;;;9.35;50.69
7268;BME280;3675;43.276;27.962;2024-03-22T14:16:04;98258.06;;;9.44;50.79
7268;BME280;3675;43.276;27.962;2024-03-22T14:19:04;98256.84;;;9.31;49.98
7268;BME280;3675;43.276;27.962;2024-03-22T14:21:59;98248.97;;;9.34;48.88
7268;BME280;3675;43.276;27.962;2024-03-22T14:24:47;98253.13;;;9.38;48.35
7268;BME280;3675;43.276;27.962;2024-03-22T14:27:38;98252.34;;;9.36;47.03
7268;BME280;3675;43.276;27.962;2024-03-22T14:30:28;98256.88;;;9.30;48.97
7268;BME280;3675;43.276;27.962;2024-03-22T14:33:17;98258.41;;;9.35;49.01
7268;BME280;3675;43.276;27.962;2024-03-22T14:36:04;98248.13;;;9.34;49.91
7268;BME280;3675;43.276;27.962;2024-03-22T14:38:51;98258.34;;;9.37;49.16
7268;BME280;3675;43.276;27.962;2024-03-22T14:41:41;98259.25;;;9.36;50.72
7268;BME280;3675;43.276;27.962;2024-03-22T14:44:49;98261.53;;;9.43;50.85
7268;BME280;3675;43.276;27.962;2024-03-22T14:47:31;98253.75;;;9.45;50.80
7268;BME280;3675;43.276;27.962;2024-03-22T14:51:01;98260.00;;;9.61;50.04
7268;BME280;3675;43.276;27.962;2024-03-22T14:54:19;98260.47;;;9.71;49.41
7268;BME280;3675;43.276;27.962;2024-03-22T14:57:07;98259.59;;;9.72;47.99
7268;BME280;3675;43.276;27.962;2024-03-22T15:00:10;98262.13;;;9.73;49.06
7268;BME280;3675;43.276;27.962;2024-03-22T15:03:00;98261.94;;;9.78;48.42
7268;BME280;3675;43.276;27.962;2024-03-22T15:05:46;98257.22;;;9.87;48.36
7268;BME280;3675;43.276;27.962;2024-03-22T15:08:23;98258.78;;;9.91;47.67
7268;BME280;3675;43.276;27.962;2024-03-22T15:10:59;98257.97;;;9.91;48.22
7268;BME280;3675;43.276;27.962;2024-03-22T15:13:59;98254.78;;;9.84;47.99
7268;BME280;3675;43.276;27.962;2024-03-22T15:17:12;98253.34;;;9.77;48.92
7268;BME280;3675;43.276;27.962;2024-03-22T15:20:20;98256.81;;;9.76;47.85
7268;BME280;3675;43.276;27.962;2024-03-22T15:23:11;98257.06;;;9.70;48.03
7268;BME280;3675;43.276;27.962;2024-03-22T15:26:13;98257.59;;;9.57;49.72
7268;BME280;3675;43.276;27.962;2024-03-22T15:28:52;98259.19;;;9.37;48.99
7268;BME280;3675;43.276;27.962;2024-03-22T15:31:34;98259.28;;;9.34;49.89
7268;BME280;3675;43.276;27.962;2024-03-22T15:34:33;98259.47;;;9.30;50.20
7268;BME280;3675;43.276;27.962;2024-03-22T15:37:13;98260.03;;;9.15;51.76
7268;BME280;3675;43.276;27.962;2024-03-22T15:39:51;98256.09;;;9.05;52.23
7268;BME280;3675;43.276;27.962;2024-03-22T15:42:42;98259.38;;;9.10;51.83
7268;BME280;3675;43.276;27.962;2024-03-22T15:45:34;98251.84;;;9.03;51.59
7268;BME280;3675;43.276;27.962;2024-03-22T15:48:30;98260.03;;;8.91;52.10
7268;BME280;3675;43.276;27.962;2024-03-22T15:54:08;98255.59;;;8.72;52.29
7268;BME280;3675;43.276;27.962;2024-03-22T15:57:09;98261.78;;;8.66;53.22
7268;BME280;3675;43.276;27.962;2024-03-22T16:00:16;98264.59;;;8.58;52.55
7268;BME280;3675;43.276;27.962;2024-03-22T16:03:09;98265.03;;;8.46;52.93
7268;BME280;3675;43.276;27.962;2024-03-22T16:06:09;98265.88;;;8.47;53.73
7268;BME280;3675;43.276;27.962;2024-03-22T16:11:49;98268.97;;;8.32;55.25
7268;BME280;3675;43.276;27.962;2024-03-22T16:14:31;98275.22;;;8.23;62.82
7268;BME280;3675;43.276;27.962;2024-03-22T16:17:29;98277.34;;;8.10;62.94
7268;BME280;3675;43.276;27.962;2024-03-22T16:20:22;98275.91;;;8.02;63.15
7268;BME280;3675;43.276;27.962;2024-03-22T16:23:36;98280.47;;;7.94;62.98
7268;BME280;3675;43.276;27.962;2024-03-22T16:26:45;98274.63;;;7.89;62.20
7268;BME280;3675;43.276;27.962;2024-03-22T16:29:23;98281.59;;;7.85;62.02
7268;BME280;3675;43.276;27.962;2024-03-22T16:32:11;98283.59;;;7.76;63.54
7268;BME280;3675;43.276;27.962;2024-03-22T16:34:53;98286.28;;;7.73;65.83
7268;BME280;3675;43.276;27.962;2024-03-22T16:38:13;98289.13;;;7.63;67.50